FGOOB LFPN-LFRG
Flight info
| Callsign | FGOOB |
|---|---|
| Flight time | 0h 36m |
| Altitude | 18000 |
| Route | ELCOB N160 BERNO |
| Aircraft | TBM8/L-SDFGRWY/S |
Departure
| Time | 2026-05-03 20:53 |
|---|---|
| Airport | Toussus-le-Noble Airport (LFPN) |
Arrival
| Time | 2026-05-03 21:29 |
|---|---|
| Airport | Deauville Normandie airport (LFRG) |
| Time | Latitude | Longitude | Altitude | Speed | Heading |
|---|---|---|---|---|---|
| 2026-05-03 20:26 | 48.74870 | 2.10928 | 542 ft | 0 kts | 53° |
| 2026-05-03 20:44 | 48.74872 | 2.10932 | 514 ft | 2 kts | 47° |
| 2026-05-03 20:44 | 48.74905 | 2.10960 | 542 ft | 7 kts | 29° |
| 2026-05-03 20:44 | 48.74934 | 2.11004 | 542 ft | 3 kts | 50° |
| 2026-05-03 20:44 | 48.74952 | 2.10993 | 542 ft | 1 kts | 314° |
| 2026-05-03 20:45 | 48.74985 | 2.10991 | 542 ft | 10 kts | 16° |
| 2026-05-03 20:45 | 48.75073 | 2.11007 | 542 ft | 11 kts | 4° |
| 2026-05-03 20:45 | 48.75116 | 2.11065 | 542 ft | 11 kts | 74° |
| 2026-05-03 20:45 | 48.75147 | 2.11207 | 542 ft | 16 kts | 72° |
| 2026-05-03 20:46 | 48.75179 | 2.11344 | 542 ft | 12 kts | 71° |
| 2026-05-03 20:46 | 48.75205 | 2.11462 | 542 ft | 13 kts | 71° |
| 2026-05-03 20:46 | 48.75251 | 2.11571 | 542 ft | 11 kts | 29° |
| 2026-05-03 20:46 | 48.75294 | 2.11584 | 542 ft | 3 kts | 355° |
| 2026-05-03 20:47 | 48.75311 | 2.11580 | 542 ft | 2 kts | 343° |
| 2026-05-03 20:47 | 48.75315 | 2.11578 | 542 ft | 0 kts | 333° |
| 2026-05-03 20:49 | 48.75316 | 2.11576 | 542 ft | 2 kts | 332° |
| 2026-05-03 20:50 | 48.75350 | 2.11537 | 542 ft | 10 kts | 305° |
| 2026-05-03 20:50 | 48.75373 | 2.11455 | 542 ft | 8 kts | 292° |
| 2026-05-03 20:50 | 48.75396 | 2.11368 | 542 ft | 9 kts | 291° |
| 2026-05-03 20:50 | 48.75418 | 2.11282 | 540 ft | 9 kts | 290° |
| 2026-05-03 20:51 | 48.75423 | 2.11214 | 540 ft | 5 kts | 250° |
| 2026-05-03 20:51 | 48.75417 | 2.11191 | 540 ft | 0 kts | 251° |
| 2026-05-03 20:52 | 48.75409 | 2.11155 | 540 ft | 19 kts | 251° |
| 2026-05-03 20:52 | 48.75292 | 2.10641 | 544 ft | 81 kts | 251° |
| 2026-05-03 20:53 | 48.75118 | 2.09654 | 767 ft | 108 kts | 254° |
| 2026-05-03 20:53 | 48.74919 | 2.08481 | 1181 ft | 124 kts | 255° |
| 2026-05-03 20:53 | 48.74827 | 2.07079 | 1578 ft | 142 kts | 267° |
| 2026-05-03 20:53 | 48.74765 | 2.05557 | 2097 ft | 145 kts | 263° |
| 2026-05-03 20:54 | 48.74622 | 2.04024 | 2620 ft | 149 kts | 261° |
| 2026-05-03 20:54 | 48.74211 | 2.00943 | 3664 ft | 151 kts | 256° |
| 2026-05-03 20:54 | 48.74023 | 1.99375 | 4180 ft | 152 kts | 257° |
| 2026-05-03 20:55 | 48.73846 | 1.97794 | 4691 ft | 153 kts | 257° |
| 2026-05-03 20:55 | 48.73663 | 1.96200 | 5221 ft | 154 kts | 256° |
| 2026-05-03 20:55 | 48.73493 | 1.94596 | 5775 ft | 156 kts | 262° |
| 2026-05-03 20:55 | 48.73450 | 1.92947 | 6323 ft | 157 kts | 263° |
| 2026-05-03 20:56 | 48.73388 | 1.91290 | 6829 ft | 158 kts | 263° |
| 2026-05-03 20:56 | 48.73326 | 1.89623 | 7384 ft | 159 kts | 262° |
| 2026-05-03 20:56 | 48.73263 | 1.87948 | 7929 ft | 160 kts | 263° |
| 2026-05-03 20:56 | 48.73201 | 1.86262 | 8460 ft | 161 kts | 262° |
| 2026-05-03 20:57 | 48.73137 | 1.84567 | 9016 ft | 162 kts | 262° |
| 2026-05-03 20:57 | 48.73074 | 1.82882 | 9558 ft | 163 kts | 262° |
| 2026-05-03 20:57 | 48.73080 | 1.81132 | 10082 ft | 166 kts | 270° |
| 2026-05-03 20:57 | 48.73189 | 1.79414 | 10575 ft | 167 kts | 269° |
| 2026-05-03 20:58 | 48.73284 | 1.77657 | 11056 ft | 168 kts | 269° |
| 2026-05-03 20:58 | 48.73378 | 1.75889 | 11550 ft | 169 kts | 269° |
| 2026-05-03 20:58 | 48.73474 | 1.74110 | 12062 ft | 170 kts | 269° |
| 2026-05-03 20:58 | 48.73569 | 1.72314 | 12554 ft | 172 kts | 268° |
| 2026-05-03 20:59 | 48.73667 | 1.70502 | 13055 ft | 173 kts | 268° |
| 2026-05-03 20:59 | 48.73764 | 1.68678 | 13549 ft | 174 kts | 268° |
| 2026-05-03 20:59 | 48.73863 | 1.66840 | 14004 ft | 176 kts | 268° |
| 2026-05-03 20:59 | 48.73960 | 1.64991 | 14442 ft | 177 kts | 268° |
| 2026-05-03 21:00 | 48.74057 | 1.63133 | 14875 ft | 177 kts | 267° |
| 2026-05-03 21:00 | 48.74090 | 1.62504 | 15024 ft | 177 kts | 267° |
| 2026-05-03 21:00 | 48.74256 | 1.59390 | 15745 ft | 179 kts | 267° |
| 2026-05-03 21:00 | 48.74355 | 1.57500 | 16180 ft | 180 kts | 267° |
| 2026-05-03 21:01 | 48.74454 | 1.55600 | 16613 ft | 182 kts | 266° |
| 2026-05-03 21:01 | 48.74555 | 1.53686 | 17046 ft | 183 kts | 266° |
| 2026-05-03 21:01 | 48.74654 | 1.51761 | 17483 ft | 184 kts | 266° |
| 2026-05-03 21:01 | 48.74825 | 1.49824 | 17890 ft | 191 kts | 276° |
| 2026-05-03 21:02 | 48.75425 | 1.47870 | 17924 ft | 221 kts | 296° |
| 2026-05-03 21:02 | 48.76541 | 1.46080 | 17928 ft | 247 kts | 314° |
| 2026-05-03 21:02 | 48.78090 | 1.44728 | 17939 ft | 268 kts | 332° |
| 2026-05-03 21:02 | 48.79884 | 1.43726 | 17949 ft | 279 kts | 333° |
| 2026-05-03 21:03 | 48.81644 | 1.42446 | 17950 ft | 282 kts | 323° |
| 2026-05-03 21:03 | 48.83292 | 1.40799 | 17953 ft | 286 kts | 319° |
| 2026-05-03 21:03 | 48.84388 | 1.39674 | 17955 ft | 289 kts | 321° |
| 2026-05-03 21:03 | 48.86112 | 1.38052 | 17955 ft | 294 kts | 323° |
| 2026-05-03 21:04 | 48.87872 | 1.36460 | 17956 ft | 296 kts | 323° |
| 2026-05-03 21:04 | 48.90200 | 1.34279 | 17960 ft | 297 kts | 322° |
| 2026-05-03 21:04 | 48.91958 | 1.32616 | 17963 ft | 299 kts | 322° |
| 2026-05-03 21:04 | 48.93731 | 1.30957 | 17968 ft | 300 kts | 323° |
| 2026-05-03 21:05 | 48.94932 | 1.29832 | 17962 ft | 300 kts | 323° |
| 2026-05-03 21:05 | 48.96707 | 1.28165 | 17969 ft | 300 kts | 323° |
| 2026-05-03 21:05 | 48.99055 | 1.25956 | 17963 ft | 300 kts | 323° |
| 2026-05-03 21:05 | 49.00249 | 1.24820 | 17964 ft | 299 kts | 321° |
| 2026-05-03 21:06 | 49.01810 | 1.22789 | 17964 ft | 292 kts | 306° |
| 2026-05-03 21:06 | 49.02934 | 1.20269 | 17968 ft | 285 kts | 291° |
| 2026-05-03 21:06 | 49.03586 | 1.17465 | 17966 ft | 278 kts | 277° |
| 2026-05-03 21:06 | 49.03856 | 1.14572 | 17966 ft | 275 kts | 271° |
| 2026-05-03 21:07 | 49.04095 | 1.11680 | 17966 ft | 275 kts | 273° |
| 2026-05-03 21:07 | 49.04366 | 1.08790 | 17969 ft | 275 kts | 273° |
| 2026-05-03 21:07 | 49.04627 | 1.05940 | 17964 ft | 275 kts | 272° |
| 2026-05-03 21:07 | 49.04882 | 1.03055 | 17962 ft | 275 kts | 272° |
| 2026-05-03 21:08 | 49.05138 | 1.00169 | 17960 ft | 275 kts | 272° |
| 2026-05-03 21:08 | 49.05396 | 0.97282 | 17958 ft | 275 kts | 272° |
| 2026-05-03 21:08 | 49.05651 | 0.94398 | 17956 ft | 274 kts | 272° |
| 2026-05-03 21:08 | 49.05907 | 0.91515 | 17941 ft | 274 kts | 272° |
| 2026-05-03 21:09 | 49.06160 | 0.88633 | 17938 ft | 274 kts | 272° |
| 2026-05-03 21:09 | 49.06414 | 0.85752 | 17936 ft | 275 kts | 273° |
| 2026-05-03 21:09 | 49.06666 | 0.82865 | 17936 ft | 275 kts | 272° |
| 2026-05-03 21:09 | 49.06919 | 0.79979 | 17937 ft | 275 kts | 273° |
| 2026-05-03 21:10 | 49.07170 | 0.77092 | 17938 ft | 275 kts | 273° |
| 2026-05-03 21:10 | 49.07421 | 0.74205 | 17938 ft | 275 kts | 272° |
| 2026-05-03 21:10 | 49.07671 | 0.71321 | 17941 ft | 274 kts | 272° |
| 2026-05-03 21:10 | 49.07919 | 0.68434 | 17942 ft | 274 kts | 272° |
| 2026-05-03 21:11 | 49.08156 | 0.65550 | 17939 ft | 274 kts | 272° |
| 2026-05-03 21:11 | 49.08560 | 0.62696 | 17928 ft | 279 kts | 284° |
| 2026-05-03 21:11 | 49.09418 | 0.60012 | 17897 ft | 284 kts | 295° |
| 2026-05-03 21:11 | 49.10455 | 0.57369 | 17518 ft | 296 kts | 296° |
| 2026-05-03 21:12 | 49.11475 | 0.54609 | 17122 ft | 301 kts | 293° |
| 2026-05-03 21:12 | 49.12457 | 0.51760 | 16737 ft | 305 kts | 293° |
| 2026-05-03 21:12 | 49.13467 | 0.48898 | 16353 ft | 307 kts | 294° |
| 2026-05-03 21:12 | 49.14504 | 0.46036 | 15970 ft | 307 kts | 295° |
| 2026-05-03 21:13 | 49.15515 | 0.43287 | 15610 ft | 295 kts | 295° |
| 2026-05-03 21:13 | 49.16494 | 0.40554 | 15227 ft | 284 kts | 294° |
| 2026-05-03 21:13 | 49.17385 | 0.37974 | 14857 ft | 272 kts | 294° |
| 2026-05-03 21:13 | 49.18266 | 0.35489 | 14484 ft | 261 kts | 294° |
| 2026-05-03 21:14 | 49.19116 | 0.33070 | 14001 ft | 256 kts | 294° |
| 2026-05-03 21:14 | 49.19955 | 0.30690 | 13511 ft | 252 kts | 295° |
| 2026-05-03 21:14 | 49.20781 | 0.28347 | 13030 ft | 249 kts | 295° |
| 2026-05-03 21:14 | 49.21599 | 0.26030 | 12558 ft | 246 kts | 295° |
| 2026-05-03 21:15 | 49.22408 | 0.23740 | 12088 ft | 244 kts | 295° |
| 2026-05-03 21:15 | 49.23209 | 0.21467 | 11635 ft | 241 kts | 295° |
| 2026-05-03 21:15 | 49.24002 | 0.19217 | 11185 ft | 239 kts | 295° |
| 2026-05-03 21:15 | 49.24787 | 0.16990 | 10742 ft | 236 kts | 295° |
| 2026-05-03 21:16 | 49.25562 | 0.14785 | 10304 ft | 234 kts | 295° |
| 2026-05-03 21:16 | 49.26329 | 0.12599 | 9864 ft | 232 kts | 295° |
| 2026-05-03 21:16 | 49.27089 | 0.10433 | 9392 ft | 230 kts | 295° |
| 2026-05-03 21:16 | 49.27843 | 0.08282 | 8919 ft | 228 kts | 295° |
| 2026-05-03 21:17 | 49.28589 | 0.06151 | 8460 ft | 226 kts | 295° |
| 2026-05-03 21:17 | 49.29081 | 0.04748 | 8156 ft | 225 kts | 295° |
| 2026-05-03 21:17 | 49.30070 | 0.01924 | 7548 ft | 224 kts | 295° |
| 2026-05-03 21:17 | 49.30804 | -0.00174 | 7110 ft | 223 kts | 296° |
| 2026-05-03 21:18 | 49.31532 | -0.02264 | 6666 ft | 222 kts | 296° |
| 2026-05-03 21:18 | 49.32258 | -0.04344 | 6223 ft | 221 kts | 296° |
| 2026-05-03 21:18 | 49.32982 | -0.06413 | 5753 ft | 219 kts | 296° |
| 2026-05-03 21:18 | 49.33699 | -0.08468 | 5306 ft | 218 kts | 296° |
| 2026-05-03 21:19 | 49.34409 | -0.10511 | 4859 ft | 216 kts | 296° |
| 2026-05-03 21:19 | 49.35114 | -0.12535 | 4399 ft | 214 kts | 296° |
| 2026-05-03 21:19 | 49.35803 | -0.14498 | 3938 ft | 205 kts | 296° |
| 2026-05-03 21:19 | 49.36461 | -0.16400 | 3482 ft | 199 kts | 296° |
| 2026-05-03 21:20 | 49.37105 | -0.18266 | 3029 ft | 197 kts | 296° |
| 2026-05-03 21:20 | 49.37727 | -0.20041 | 2949 ft | 181 kts | 298° |
| 2026-05-03 21:20 | 49.38494 | -0.21534 | 2940 ft | 179 kts | 317° |
| 2026-05-03 21:20 | 49.39578 | -0.22462 | 2941 ft | 180 kts | 340° |
| 2026-05-03 21:21 | 49.40822 | -0.22662 | 2941 ft | 182 kts | 4° |
| 2026-05-03 21:21 | 49.42027 | -0.22095 | 2941 ft | 183 kts | 27° |
| 2026-05-03 21:21 | 49.43002 | -0.20853 | 2942 ft | 183 kts | 49° |
| 2026-05-03 21:21 | 49.43806 | -0.19331 | 2944 ft | 183 kts | 51° |
| 2026-05-03 21:22 | 49.44622 | -0.17825 | 2946 ft | 183 kts | 48° |
| 2026-05-03 21:22 | 49.45458 | -0.16347 | 2943 ft | 183 kts | 54° |
| 2026-05-03 21:22 | 49.45966 | -0.14568 | 2939 ft | 183 kts | 78° |
| 2026-05-03 21:22 | 49.45974 | -0.12631 | 2939 ft | 182 kts | 102° |
| 2026-05-03 21:23 | 49.45501 | -0.10853 | 2942 ft | 180 kts | 122° |
| 2026-05-03 21:23 | 49.44850 | -0.09215 | 2944 ft | 180 kts | 123° |
| 2026-05-03 21:23 | 49.44217 | -0.07553 | 2946 ft | 181 kts | 120° |
| 2026-05-03 21:23 | 49.43634 | -0.05835 | 2948 ft | 182 kts | 118° |
| 2026-05-03 21:24 | 49.43059 | -0.04100 | 2950 ft | 183 kts | 118° |
| 2026-05-03 21:24 | 49.42519 | -0.02510 | 2904 ft | 152 kts | 120° |
| 2026-05-03 21:24 | 49.42071 | -0.01190 | 2738 ft | 130 kts | 118° |
| 2026-05-03 21:24 | 49.41693 | -0.00016 | 2578 ft | 120 kts | 117° |
| 2026-05-03 21:25 | 49.41323 | 0.01115 | 2418 ft | 112 kts | 121° |
| 2026-05-03 21:25 | 49.40988 | 0.02109 | 2288 ft | 100 kts | 116° |
| 2026-05-03 21:25 | 49.40684 | 0.03080 | 2156 ft | 100 kts | 119° |
| 2026-05-03 21:25 | 49.40362 | 0.04030 | 2018 ft | 100 kts | 118° |
| 2026-05-03 21:26 | 49.40043 | 0.04978 | 1880 ft | 100 kts | 119° |
| 2026-05-03 21:26 | 49.39710 | 0.05916 | 1739 ft | 100 kts | 121° |
| 2026-05-03 21:26 | 49.39385 | 0.06863 | 1598 ft | 100 kts | 118° |
| 2026-05-03 21:26 | 49.39072 | 0.07814 | 1448 ft | 99 kts | 117° |
| 2026-05-03 21:27 | 49.38762 | 0.08749 | 1313 ft | 97 kts | 118° |
| 2026-05-03 21:27 | 49.38459 | 0.09675 | 1185 ft | 98 kts | 118° |
| 2026-05-03 21:27 | 49.38144 | 0.10600 | 1061 ft | 97 kts | 118° |
| 2026-05-03 21:27 | 49.37834 | 0.11515 | 920 ft | 96 kts | 117° |
| 2026-05-03 21:28 | 49.37538 | 0.12417 | 798 ft | 94 kts | 117° |
| 2026-05-03 21:28 | 49.37239 | 0.13311 | 676 ft | 94 kts | 117° |
| 2026-05-03 21:28 | 49.36942 | 0.14207 | 543 ft | 94 kts | 117° |
| 2026-05-03 21:28 | 49.36670 | 0.14999 | 470 ft | 71 kts | 116° |
| 2026-05-03 21:29 | 49.36481 | 0.15570 | 473 ft | 51 kts | 117° |
| 2026-05-03 21:29 | 49.36384 | 0.15859 | 469 ft | 13 kts | 117° |
| 2026-05-03 21:29 | 49.36349 | 0.15960 | 471 ft | 11 kts | 129° |
| 2026-05-03 21:29 | 49.36266 | 0.15934 | 471 ft | 12 kts | 208° |
| 2026-05-03 21:30 | 49.36234 | 0.15909 | 471 ft | 0 kts | 206° |
| 2026-05-03 21:31 | 49.36210 | 0.15889 | 470 ft | 4 kts | 211° |
| 2026-05-03 21:31 | 49.36190 | 0.15871 | 470 ft | 2 kts | 216° |
| 2026-05-03 21:31 | 49.36189 | 0.15857 | 470 ft | 1 kts | 306° |
| 2026-05-03 21:31 | 49.36197 | 0.15837 | 470 ft | 2 kts | 295° |
| 2026-05-03 21:32 | 49.36197 | 0.15836 | 470 ft | 0 kts | 296° |